Time;durP1;ratioP1;P1;durP2;ratioP2;P2;SDS_P1;SDS_P2;PMS_P1;PMS_P2;Temp;Humidity;BMP_temperature;BMP_pressure;BME280_temperature;BME280_humidity;BME280_pressure;Samples;Min_cycle;Max_cycle;Signal;HPM_P1;HPM_P2
2023/01/25 00:01:17;;;;;;;9.95;8.50;;;3.40;99.90;;;;;;5110453;28;20207;-84
2023/01/25 00:03:46;;;;;;;10.85;8.95;;;3.40;99.90;;;;;;5110447;28;20215;-83
2023/01/25 00:06:14;;;;;;;10.50;8.98;;;3.40;99.90;;;;;;5110384;28;20222;-83
2023/01/25 00:08:44;;;;;;;8.90;8.00;;;3.40;99.90;;;;;;5109957;28;20235;-84
2023/01/25 00:11:12;;;;;;;10.77;9.40;;;3.40;99.90;;;;;;5110645;28;20276;-84
2023/01/25 00:13:40;;;;;;;12.88;9.93;;;3.40;99.90;;;;;;5110470;28;20237;-83
2023/01/25 00:16:09;;;;;;;10.80;8.77;;;3.40;99.90;;;;;;5109886;28;20235;-84
2023/01/25 00:18:37;;;;;;;11.20;9.77;;;3.40;99.90;;;;;;5110056;28;20204;-84
2023/01/25 00:21:12;;;;;;;10.15;8.40;;;3.40;99.90;;;;;;5110517;28;20211;-83
2023/01/25 00:23:40;;;;;;;12.55;10.05;;;3.40;99.90;;;;;;5110299;28;20225;-83
2023/01/25 00:26:11;;;;;;;13.05;10.23;;;3.40;99.90;;;;;;5110768;28;20212;-83
2023/01/25 00:28:39;;;;;;;11.20;9.73;;;3.40;99.90;;;;;;5110493;28;20211;-84
2023/01/25 00:31:09;;;;;;;13.93;9.55;;;3.40;99.90;;;;;;5110315;28;20219;-83
2023/01/25 00:33:50;;;;;;;9.23;7.93;;;3.50;99.90;;;;;;5110240;28;20224;-83
2023/01/25 00:36:31;;;;;;;9.68;8.13;;;3.50;99.90;;;;;;5110413;28;20215;-83
2023/01/25 00:39:00;;;;;;;9.55;8.48;;;3.50;99.90;;;;;;5110515;28;20286;-83
2023/01/25 00:41:30;;;;;;;10.13;7.78;;;3.50;99.90;;;;;;5110531;28;20212;-83
2023/01/25 00:43:58;;;;;;;11.63;8.73;;;3.50;99.90;;;;;;5111522;28;20238;-83
2023/01/25 00:46:27;;;;;;;9.20;7.97;;;3.50;99.90;;;;;;5113588;28;20218;-83
2023/01/25 00:48:56;;;;;;;13.38;8.63;;;3.50;99.90;;;;;;5113769;28;20212;-83
2023/01/25 00:51:25;;;;;;;9.63;8.48;;;3.50;99.90;;;;;;5113958;28;20240;-83
2023/01/25 00:53:53;;;;;;;11.35;9.13;;;3.50;99.90;;;;;;5113753;28;20219;-83
2023/01/25 00:56:22;;;;;;;9.73;8.73;;;3.50;99.90;;;;;;5113751;28;20268;-83
2023/01/25 00:58:51;;;;;;;12.13;9.18;;;3.50;99.90;;;;;;5113565;28;20208;-83
2023/01/25 01:01:20;;;;;;;8.95;8.07;;;3.50;99.90;;;;;;5113629;28;20226;-83
2023/01/25 01:03:48;;;;;;;9.90;8.90;;;3.50;99.90;;;;;;5113430;28;20255;-83
2023/01/25 01:06:16;;;;;;;12.32;9.68;;;3.40;99.90;;;;;;5113607;28;20207;-83
2023/01/25 01:08:45;;;;;;;14.48;9.68;;;3.50;99.90;;;;;;5113809;28;20218;-83
2023/01/25 01:11:13;;;;;;;12.38;8.98;;;3.40;99.90;;;;;;5113525;28;20291;-83
2023/01/25 01:13:41;;;;;;;14.63;10.25;;;3.50;99.90;;;;;;5113035;28;20223;-83
2023/01/25 01:16:13;;;;;;;10.10;9.07;;;3.50;99.90;;;;;;5112820;28;20238;-84
2023/01/25 01:18:43;;;;;;;10.38;9.27;;;3.50;99.90;;;;;;5112834;28;20218;-83
2023/01/25 01:21:13;;;;;;;11.77;9.35;;;3.50;99.90;;;;;;5113584;28;20207;-83
2023/01/25 01:23:41;;;;;;;10.05;9.05;;;3.50;99.90;;;;;;5115035;28;20228;-83
2023/01/25 01:26:13;;;;;;;8.88;7.85;;;3.50;99.90;;;;;;5115845;28;20200;-83
2023/01/25 01:28:41;;;;;;;9.93;8.20;;;3.50;99.90;;;;;;5115496;28;20246;-83
2023/01/25 01:31:13;;;;;;;10.55;8.75;;;3.50;99.90;;;;;;5115670;28;20210;-83
2023/01/25 01:33:41;;;;;;;10.32;8.30;;;3.50;99.90;;;;;;5115703;28;20239;-83
2023/01/25 01:36:11;;;;;;;9.02;8.10;;;3.40;99.90;;;;;;5115072;28;20226;-82
2023/01/25 01:38:39;;;;;;;13.45;10.10;;;3.40;99.90;;;;;;5115259;28;20204;-84
2023/01/25 01:41:07;;;;;;;11.75;9.32;;;3.40;99.90;;;;;;5115236;28;20281;-84
2023/01/25 01:43:36;;;;;;;9.55;8.65;;;3.50;99.90;;;;;;5115278;28;20228;-83
2023/01/25 01:46:09;;;;;;;11.45;9.07;;;3.40;99.90;;;;;;5115217;28;20204;-84
2023/01/25 01:48:44;;;;;;;10.27;8.25;;;3.40;99.90;;;;;;5114794;28;20203;-83
2023/01/25 01:51:17;;;;;;;10.38;9.30;;;3.40;99.90;;;;;;5115269;28;20217;-83
2023/01/25 01:53:51;;;;;;;12.32;10.32;;;3.40;99.90;;;;;;5115026;28;20305;-83
2023/01/25 01:56:24;;;;;;;10.48;9.13;;;3.50;99.90;;;;;;5113947;28;20219;-84
2023/01/25 01:58:55;;;;;;;12.30;9.45;;;3.40;99.90;;;;;;5114838;28;20200;-84
2023/01/25 02:01:23;;;;;;;9.15;8.20;;;3.50;99.90;;;;;;5114928;28;20254;-83
2023/01/25 02:03:54;;;;;;;11.80;10.07;;;3.50;99.90;;;;;;5114858;28;20231;-84
2023/01/25 02:06:28;;;;;;;13.95;10.48;;;3.40;99.90;;;;;;5115133;28;20184;-84
2023/01/25 02:08:58;;;;;;;7.90;7.18;;;3.40;99.90;;;;;;5114549;28;20207;-84
2023/01/25 02:11:27;;;;;;;16.13;9.10;;;3.40;99.90;;;;;;5114714;28;20207;-84
2023/01/25 02:13:58;;;;;;;10.68;9.32;;;3.40;99.90;;;;;;5114524;28;20228;-84
2023/01/25 02:16:28;;;;;;;12.13;8.38;;;3.40;99.90;;;;;;5114101;28;20314;-84
2023/01/25 02:19:01;;;;;;;10.77;9.65;;;3.40;99.90;;;;;;5114440;28;20208;-84
2023/01/25 02:21:37;;;;;;;12.35;9.95;;;3.40;99.90;;;;;;5114179;28;20231;-84
2023/01/25 02:24:11;;;;;;;14.35;9.77;;;3.40;99.90;;;;;;5114390;28;20233;-84
2023/01/25 02:26:41;;;;;;;9.40;8.40;;;3.40;99.90;;;;;;5114349;28;20199;-84
2023/01/25 02:29:11;;;;;;;9.45;8.55;;;3.40;99.90;;;;;;5114462;28;20203;-84
2023/01/25 02:31:39;;;;;;;14.52;9.70;;;3.40;99.90;;;;;;5114076;28;20203;-84
2023/01/25 02:34:08;;;;;;;12.07;10.40;;;3.40;99.90;;;;;;5114106;28;20231;-84
2023/01/25 02:36:36;;;;;;;15.85;10.32;;;3.40;99.90;;;;;;5114105;28;20220;-84
2023/01/25 02:39:08;;;;;;;9.80;8.65;;;3.40;99.90;;;;;;5114245;28;20219;-84
2023/01/25 02:41:37;;;;;;;10.43;9.35;;;3.40;99.90;;;;;;5114423;28;20204;-84
2023/01/25 02:44:11;;;;;;;14.63;10.57;;;3.40;99.90;;;;;;5113908;28;20247;-84
2023/01/25 02:46:40;;;;;;;11.50;9.88;;;3.40;99.90;;;;;;5113557;28;20196;-83
2023/01/25 02:49:10;;;;;;;11.00;8.60;;;3.40;99.90;;;;;;5113648;28;20211;-84
2023/01/25 02:51:40;;;;;;;12.10;9.80;;;3.40;99.90;;;;;;5114236;28;20214;-84
2023/01/25 02:54:11;;;;;;;12.45;10.27;;;3.40;99.90;;;;;;5113947;28;20230;-84
2023/01/25 02:56:40;;;;;;;10.25;9.25;;;3.40;99.90;;;;;;5113804;28;20266;-83
2023/01/25 02:59:12;;;;;;;12.00;9.73;;;3.40;99.90;;;;;;5113737;28;20212;-83
2023/01/25 03:01:42;;;;;;;10.30;9.27;;;3.40;99.90;;;;;;5113583;28;20288;-82
2023/01/25 03:04:11;;;;;;;13.18;9.93;;;3.40;99.90;;;;;;5113795;28;20284;-83
2023/01/25 03:06:39;;;;;;;9.77;8.85;;;3.40;99.90;;;;;;5113545;28;20204;-83
2023/01/25 03:09:09;;;;;;;15.73;8.82;;;3.40;99.90;;;;;;5113585;28;20230;-83
2023/01/25 03:11:38;;;;;;;11.00;9.70;;;3.40;99.90;;;;;;5113796;28;20207;-82
2023/01/25 03:14:06;;;;;;;10.50;9.40;;;3.40;99.90;;;;;;5113428;28;20311;-82
2023/01/25 03:16:36;;;;;;;10.38;8.85;;;3.40;99.90;;;;;;5113270;28;20227;-83
2023/01/25 03:19:04;;;;;;;12.95;10.07;;;3.40;99.90;;;;;;5113248;28;20212;-83
2023/01/25 03:21:32;;;;;;;14.73;8.95;;;3.40;99.90;;;;;;5113493;28;20204;-84
2023/01/25 03:24:02;;;;;;;12.40;10.05;;;3.40;99.90;;;;;;5113868;28;20224;-83
2023/01/25 03:26:30;;;;;;;13.15;10.90;;;3.40;99.90;;;;;;5113142;28;20199;-84
2023/01/25 03:28:58;;;;;;;10.55;8.98;;;3.40;99.90;;;;;;5113016;28;20204;-84
2023/01/25 03:31:27;;;;;;;12.30;9.60;;;3.40;99.90;;;;;;5113495;28;20207;-83
2023/01/25 03:33:56;;;;;;;10.15;9.00;;;3.40;99.90;;;;;;5113188;28;20242;-83
2023/01/25 03:36:25;;;;;;;14.25;10.23;;;3.30;99.90;;;;;;5113299;28;20227;-82
2023/01/25 03:38:53;;;;;;;16.38;9.55;;;3.30;99.90;;;;;;5113016;28;20272;-83
2023/01/25 03:41:21;;;;;;;13.07;9.88;;;3.30;99.90;;;;;;5113041;28;20200;-83
2023/01/25 03:43:49;;;;;;;11.05;9.15;;;3.30;99.90;;;;;;5113366;28;20224;-83
2023/01/25 03:46:18;;;;;;;10.52;8.52;;;3.30;99.90;;;;;;5113083;28;20209;-83
2023/01/25 03:48:46;;;;;;;11.80;9.90;;;3.30;99.90;;;;;;5112490;28;20269;-83
2023/01/25 03:51:16;;;;;;;14.82;10.98;;;3.30;99.90;;;;;;5112929;28;20204;-83
2023/01/25 03:53:44;;;;;;;10.05;8.82;;;3.40;99.90;;;;;;5113405;28;20219;-83
2023/01/25 03:56:18;;;;;;;11.27;10.10;;;3.40;99.90;;;;;;5112938;28;20227;-83
2023/01/25 03:58:47;;;;;;;11.95;9.88;;;3.30;99.90;;;;;;5113061;28;20207;-83
2023/01/25 04:01:15;;;;;;;12.00;9.63;;;3.40;99.90;;;;;;5112904;28;20200;-84
2023/01/25 04:03:43;;;;;;;11.45;9.70;;;3.40;99.90;;;;;;5112807;28;20227;-83
2023/01/25 04:06:12;;;;;;;9.98;9.07;;;3.30;99.90;;;;;;5112383;28;20252;-83
2023/01/25 04:08:41;;;;;;;11.48;10.23;;;3.30;99.90;;;;;;5112837;28;20211;-83
2023/01/25 04:11:10;;;;;;;9.77;8.80;;;3.30;99.90;;;;;;5113115;28;20204;-82
2023/01/25 04:13:39;;;;;;;9.60;8.68;;;3.30;99.90;;;;;;5112885;28;20229;-83
2023/01/25 04:16:10;;;;;;;12.95;10.73;;;3.30;99.90;;;;;;5112773;28;20250;-83
2023/01/25 04:18:39;;;;;;;13.40;10.93;;;3.30;99.90;;;;;;5112923;28;20203;-83
2023/01/25 04:21:08;;;;;;;19.60;10.45;;;3.30;99.90;;;;;;5116883;28;20263;-82
2023/01/25 04:23:36;;;;;;;10.63;9.52;;;3.30;99.90;;;;;;5116852;28;20234;-83
2023/01/25 04:26:09;;;;;;;13.50;10.50;;;3.30;99.90;;;;;;5116728;28;20207;-83
2023/01/25 04:28:37;;;;;;;11.52;10.38;;;3.30;99.90;;;;;;5116769;28;20208;-83
2023/01/25 04:31:06;;;;;;;11.38;9.52;;;3.30;99.90;;;;;;5116496;28;20214;-83
2023/01/25 04:33:34;;;;;;;12.02;10.82;;;3.30;99.90;;;;;;5116817;28;20220;-83
2023/01/25 04:36:03;;;;;;;10.15;9.13;;;3.40;99.90;;;;;;5116914;28;20255;-83
2023/01/25 04:38:31;;;;;;;12.85;10.77;;;3.30;99.90;;;;;;5116287;28;20207;-83
2023/01/25 04:40:59;;;;;;;10.73;9.63;;;3.30;99.90;;;;;;5116588;28;20218;-83
2023/01/25 04:43:29;;;;;;;11.30;9.75;;;3.30;99.90;;;;;;5116152;28;20257;-83
2023/01/25 04:45:57;;;;;;;11.25;9.50;;;3.30;99.90;;;;;;5116139;28;20207;-83
2023/01/25 04:48:25;;;;;;;10.82;9.10;;;3.30;99.90;;;;;;5116398;28;20230;-83
2023/01/25 04:50:54;;;;;;;9.68;8.77;;;3.30;99.90;;;;;;5116173;28;20203;-83
2023/01/25 04:53:22;;;;;;;14.23;10.27;;;3.30;99.90;;;;;;5116302;28;20234;-83
2023/01/25 04:55:50;;;;;;;11.63;10.32;;;3.30;99.90;;;;;;5116069;28;20242;-84
2023/01/25 04:58:18;;;;;;;10.07;9.02;;;3.30;99.90;;;;;;5115128;28;20234;-84
2023/01/25 05:00:48;;;;;;;14.68;11.15;;;3.30;99.90;;;;;;5116015;28;20214;-84
2023/01/25 05:03:16;;;;;;;10.75;9.73;;;3.30;99.90;;;;;;5116325;28;20220;-84
2023/01/25 05:05:47;;;;;;;12.48;9.60;;;3.30;99.90;;;;;;5115830;28;20199;-83
2023/01/25 05:08:15;;;;;;;13.68;10.73;;;3.20;99.90;;;;;;5115791;28;20199;-83
2023/01/25 05:10:44;;;;;;;10.75;9.70;;;3.20;99.90;;;;;;5116151;28;20200;-83
2023/01/25 05:13:12;;;;;;;10.95;9.20;;;3.20;99.90;;;;;;5115933;28;20219;-83
2023/01/25 05:15:40;;;;;;;12.13;10.70;;;3.20;99.90;;;;;;5115885;28;20204;-83
2023/01/25 05:18:10;;;;;;;11.57;10.38;;;3.20;99.90;;;;;;5115184;28;20238;-83
2023/01/25 05:20:38;;;;;;;15.55;10.45;;;3.20;99.90;;;;;;5115607;28;20294;-82
2023/01/25 05:23:07;;;;;;;24.90;10.80;;;3.20;99.90;;;;;;5115365;28;20220;-83
2023/01/25 05:28:20;;;;;;;10.23;9.20;;;3.30;99.90;;;;;;5115395;28;20199;-83
2023/01/25 05:30:48;;;;;;;15.77;11.07;;;3.20;99.90;;;;;;5114475;28;20214;-82
2023/01/25 05:33:18;;;;;;;12.38;11.07;;;3.20;99.90;;;;;;5115195;28;20224;-83
2023/01/25 05:35:46;;;;;;;12.27;10.93;;;3.20;99.90;;;;;;5115314;28;20210;-83
2023/01/25 05:38:15;;;;;;;11.68;10.52;;;3.20;99.90;;;;;;5114919;28;20224;-84
2023/01/25 05:40:43;;;;;;;13.63;11.55;;;3.30;99.90;;;;;;5115796;28;20206;-83
2023/01/25 05:43:11;;;;;;;13.68;11.48;;;3.20;99.90;;;;;;5115571;28;20224;-83
2023/01/25 05:45:39;;;;;;;14.48;11.13;;;3.20;99.90;;;;;;5115065;28;20215;-83
2023/01/25 05:48:08;;;;;;;14.98;11.95;;;3.30;99.90;;;;;;5114798;28;20200;-82
2023/01/25 05:50:37;;;;;;;11.40;10.25;;;3.20;99.90;;;;;;5114933;28;20291;-83
2023/01/25 05:53:06;;;;;;;12.02;10.80;;;3.20;99.90;;;;;;5114941;28;20219;-83
2023/01/25 05:55:36;;;;;;;13.23;11.73;;;3.20;99.90;;;;;;5115191;28;20206;-83
2023/01/25 05:58:04;;;;;;;17.20;12.05;;;3.20;99.90;;;;;;5114813;28;20212;-82
2023/01/25 06:00:32;;;;;;;12.93;11.48;;;3.20;99.90;;;;;;5114973;28;20215;-83
2023/01/25 06:03:01;;;;;;;14.10;11.90;;;3.20;99.90;;;;;;5114923;28;20311;-83
2023/01/25 06:05:29;;;;;;;12.48;11.10;;;3.20;99.90;;;;;;5114892;28;20208;-83
2023/01/25 06:08:00;;;;;;;13.25;11.18;;;3.20;99.90;;;;;;5115121;28;20216;-83
2023/01/25 06:10:28;;;;;;;13.43;11.95;;;3.20;99.90;;;;;;5115064;28;20211;-82
2023/01/25 06:12:59;;;;;;;14.40;12.30;;;3.20;99.90;;;;;;5114607;28;20231;-83
2023/01/25 06:15:27;;;;;;;14.88;12.23;;;3.20;99.90;;;;;;5114349;28;20207;-83
2023/01/25 06:17:56;;;;;;;13.02;11.02;;;3.20;99.90;;;;;;5113844;28;20230;-83
2023/01/25 06:20:24;;;;;;;14.10;12.15;;;3.20;99.90;;;;;;5114278;28;20203;-84
2023/01/25 06:22:52;;;;;;;11.80;10.43;;;3.20;99.90;;;;;;5114376;28;20228;-83
2023/01/25 06:25:22;;;;;;;13.88;10.55;;;3.30;99.90;;;;;;5114482;28;20210;-83
2023/01/25 06:27:55;;;;;;;16.33;12.05;;;3.30;99.90;;;;;;5114287;28;20204;-84
2023/01/25 06:30:33;;;;;;;18.17;10.68;;;3.20;99.90;;;;;;5114650;28;20242;-83
2023/01/25 06:33:02;;;;;;;12.45;10.35;;;3.30;99.90;;;;;;5114331;28;20227;-83
2023/01/25 06:35:48;;;;;;;12.18;10.65;;;3.30;99.90;;;;;;5114123;28;20318;-83
2023/01/25 06:41:47;;;;;;;10.70;9.07;;;3.20;99.90;;;;;;5110447;28;20302;-83
2023/01/25 06:44:38;;;;;;;13.20;10.27;;;3.20;99.90;;;;;;5114032;28;20307;-83
2023/01/25 06:47:33;;;;;;;15.70;10.65;;;3.20;99.90;;;;;;5114166;28;20264;-84
2023/01/25 06:50:19;;;;;;;14.38;8.95;;;3.20;99.90;;;;;;5114060;28;20227;-83
2023/01/25 06:53:05;;;;;;;13.32;9.45;;;3.20;99.90;;;;;;5113723;28;20283;-83
2023/01/25 06:55:36;;;;;;;11.25;9.63;;;3.20;99.90;;;;;;5113955;28;20204;-83
2023/01/25 06:58:08;;;;;;;16.08;10.95;;;3.20;99.90;;;;;;5113345;28;20226;-83
2023/01/25 07:04:08;;;;;;;14.43;10.15;;;3.20;99.90;;;;;;5084901;28;20235;-83
2023/01/25 07:06:48;;;;;;;12.10;10.32;;;3.20;99.90;;;;;;5113952;28;20200;-83
2023/01/25 07:09:24;;;;;;;13.65;10.77;;;3.30;99.90;;;;;;5113642;28;20195;-83
2023/01/25 07:11:53;;;;;;;12.77;10.65;;;3.20;99.90;;;;;;5113640;28;20204;-83
2023/01/25 07:17:32;;;;;;;12.48;10.35;;;3.30;99.90;;;;;;5112151;28;20214;-83
2023/01/25 07:20:17;;;;;;;11.55;10.38;;;3.30;99.90;;;;;;5111636;28;20282;-82
2023/01/25 07:22:57;;;;;;;;;;;;;;;;;;;;;
2023/01/25 07:28:46;;;;;;;11.95;10.20;;;3.30;99.90;;;;;;5113436;28;20271;-85
2023/01/25 07:31:36;;;;;;;13.65;10.82;;;3.30;99.90;;;;;;5113439;28;20203;-83
2023/01/25 07:34:22;;;;;;;10.60;9.55;;;3.20;99.90;;;;;;5113144;28;20254;-82
2023/01/25 07:37:09;;;;;;;13.02;9.65;;;3.30;99.90;;;;;;5113042;28;20230;-83
2023/01/25 07:40:24;;;;;;;11.30;9.80;;;3.30;99.90;;;;;;5113303;28;20220;-84
2023/01/25 07:43:28;;;;;;;12.52;9.43;;;3.30;99.90;;;;;;5113161;28;20234;-83
2023/01/25 07:46:03;;;;;;;13.93;10.10;;;3.30;99.90;;;;;;5113003;28;20214;-84
2023/01/25 07:49:15;;;;;;;10.25;9.07;;;3.30;99.90;;;;;;5112485;28;20200;-84
2023/01/25 07:52:24;;;;;;;16.58;9.85;;;3.20;99.90;;;;;;5112698;28;20223;-84
2023/01/25 08:01:56;;;;;;;10.48;9.43;;;3.30;99.90;;;;;;5115406;28;20200;-84
2023/01/25 08:08:26;;;;;;;11.88;10.00;;;3.20;99.90;;;;;;5116665;28;20230;-84
2023/01/25 08:11:34;;;;;;;10.57;9.55;;;3.30;99.90;;;;;;5028901;28;20291;-83
2023/01/25 08:14:20;;;;;;;10.02;8.98;;;3.30;99.90;;;;;;5047580;28;20230;-83
2023/01/25 08:16:48;;;;;;;10.23;9.18;;;3.30;99.90;;;;;;5116587;28;20294;-84
2023/01/25 08:19:20;;;;;;;11.73;9.38;;;3.40;99.90;;;;;;5116757;28;20219;-83
2023/01/25 08:21:50;;;;;;;12.13;10.25;;;3.40;99.90;;;;;;5117197;28;20226;-84
2023/01/25 08:24:26;;;;;;;9.88;8.80;;;3.50;99.90;;;;;;5116297;28;20223;-84
2023/01/25 08:26:55;;;;;;;14.95;10.40;;;3.50;99.90;;;;;;5116558;28;20207;-84
2023/01/25 08:29:23;;;;;;;11.25;9.90;;;3.50;99.90;;;;;;5116804;28;20204;-84
2023/01/25 08:31:51;;;;;;;11.90;8.93;;;3.40;99.90;;;;;;5116427;28;20208;-84
2023/01/25 08:34:20;;;;;;;9.90;8.90;;;3.40;99.90;;;;;;5116976;28;20231;-83
2023/01/25 08:36:50;;;;;;;15.35;9.68;;;3.40;99.90;;;;;;5116027;28;20290;-83
2023/01/25 08:39:18;;;;;;;11.82;10.07;;;3.40;99.90;;;;;;5115988;28;20334;-84
2023/01/25 08:41:46;;;;;;;12.43;10.13;;;3.40;99.90;;;;;;5116358;28;20317;-84
2023/01/25 08:44:14;;;;;;;10.63;9.63;;;3.40;99.90;;;;;;5116264;28;20231;-82
2023/01/25 08:46:43;;;;;;;16.63;10.80;;;3.40;99.90;;;;;;5116316;28;20200;-84
2023/01/25 08:49:12;;;;;;;15.77;11.30;;;3.40;99.90;;;;;;5115742;28;20196;-83
2023/01/25 08:51:40;;;;;;;16.27;9.95;;;3.40;99.90;;;;;;5115813;28;20204;-84
2023/01/25 08:54:12;;;;;;;10.57;9.18;;;3.50;99.90;;;;;;5116046;28;20230;-84
2023/01/25 08:56:41;;;;;;;13.88;10.45;;;3.50;99.90;;;;;;5115904;28;20204;-84
2023/01/25 08:59:12;;;;;;;11.82;9.27;;;3.50;99.90;;;;;;5115833;28;20220;-84
2023/01/25 09:01:40;;;;;;;11.00;9.82;;;3.50;99.90;;;;;;5116075;28;20210;-84
2023/01/25 09:04:08;;;;;;;9.25;7.82;;;3.60;99.90;;;;;;5115256;28;20230;-84
2023/01/25 09:06:37;;;;;;;11.32;9.38;;;3.60;99.90;;;;;;5115872;28;20203;-84
2023/01/25 09:09:07;;;;;;;10.38;9.38;;;3.60;99.90;;;;;;5115961;28;20229;-83
2023/01/25 09:11:39;;;;;;;9.48;8.50;;;3.50;99.90;;;;;;5116065;28;20204;-84
2023/01/25 09:14:07;;;;;;;9.93;8.93;;;3.50;99.90;;;;;;5115949;28;20292;-84
2023/01/25 09:16:35;;;;;;;11.32;9.15;;;3.50;99.90;;;;;;5115576;28;20207;-84
2023/01/25 09:19:05;;;;;;;12.25;9.43;;;3.60;99.90;;;;;;5115330;28;20227;-84
2023/01/25 09:21:33;;;;;;;11.57;7.40;;;3.60;99.90;;;;;;5115921;28;20203;-83
2023/01/25 09:24:01;;;;;;;12.38;9.32;;;3.60;99.90;;;;;;5115957;28;20231;-83
2023/01/25 09:26:38;;;;;;;10.80;9.18;;;3.60;99.90;;;;;;5115773;28;20254;-83
2023/01/25 09:29:07;;;;;;;10.80;8.82;;;3.60;99.90;;;;;;5115406;28;20203;-83
2023/01/25 09:31:38;;;;;;;7.63;6.82;;;3.70;99.90;;;;;;5115445;28;20212;-83
2023/01/25 09:34:08;;;;;;;9.35;7.13;;;3.70;99.90;;;;;;5115515;28;20225;-83
2023/01/25 09:36:37;;;;;;;9.18;8.27;;;3.70;99.90;;;;;;5115519;28;20291;-83
2023/01/25 09:39:05;;;;;;;13.13;9.07;;;3.70;99.90;;;;;;5115512;28;20212;-83
2023/01/25 09:41:57;;;;;;;8.82;7.93;;;3.70;99.90;;;;;;5114806;28;20204;-85
2023/01/25 09:44:45;;;;;;;8.63;7.72;;;3.70;99.90;;;;;;5101440;28;20228;-83
2023/01/25 09:47:18;;;;;;;9.10;8.20;;;3.60;99.90;;;;;;5114907;28;20204;-84
2023/01/25 09:50:06;;;;;;;10.10;8.60;;;3.70;99.90;;;;;;5115004;28;20199;-83
2023/01/25 09:52:57;;;;;;;11.18;8.55;;;3.80;99.90;;;;;;5115421;28;20220;-83
2023/01/25 09:55:29;;;;;;;14.13;9.50;;;3.80;99.90;;;;;;5114867;28;20203;-84
2023/01/25 09:58:02;;;;;;;11.88;8.32;;;3.80;99.90;;;;;;5114669;28;20195;-83
2023/01/25 10:00:34;;;;;;;9.50;7.97;;;3.90;99.90;;;;;;5114691;28;20220;-84
2023/01/25 10:03:11;;;;;;;12.43;9.88;;;3.80;99.90;;;;;;5114808;28;20231;-83
2023/01/25 10:05:44;;;;;;;8.40;7.50;;;3.90;99.90;;;;;;5114924;28;20211;-84
2023/01/25 10:08:22;;;;;;;10.35;8.55;;;3.90;99.90;;;;;;5114583;28;20210;-83
2023/01/25 10:10:55;;;;;;;10.75;8.02;;;3.90;99.90;;;;;;5114600;28;20192;-82
2023/01/25 10:13:30;;;;;;;8.38;6.93;;;3.90;99.90;;;;;;5114863;28;20239;-83
2023/01/25 10:16:04;;;;;;;7.50;6.80;;;3.90;99.90;;;;;;5114229;28;20214;-83
2023/01/25 10:18:49;;;;;;;8.95;6.88;;;3.90;99.90;;;;;;5114328;28;20204;-83
2023/01/25 10:21:24;;;;;;;8.93;7.60;;;3.90;99.90;;;;;;5114408;28;20223;-84
2023/01/25 10:24:08;;;;;;;8.70;7.82;;;3.90;99.90;;;;;;5114088;28;20286;-83
2023/01/25 10:26:40;;;;;;;9.52;7.45;;;3.90;99.90;;;;;;5114446;28;20211;-84
2023/01/25 10:29:15;;;;;;;7.20;6.35;;;3.90;99.90;;;;;;5114403;28;20242;-84
2023/01/25 10:31:49;;;;;;;12.18;7.30;;;3.90;99.90;;;;;;5114110;28;20207;-83
2023/01/25 10:34:20;;;;;;;8.95;7.28;;;4.00;99.90;;;;;;5114353;28;20259;-84
2023/01/25 10:36:53;;;;;;;10.10;8.20;;;3.90;99.90;;;;;;5113860;28;20210;-84
2023/01/25 10:39:21;;;;;;;8.68;7.63;;;3.90;99.90;;;;;;5113913;28;20200;-85
2023/01/25 10:41:54;;;;;;;8.13;7.03;;;3.90;99.90;;;;;;5113984;28;20207;-84
2023/01/25 10:44:27;;;;;;;9.70;6.38;;;3.90;99.90;;;;;;5114387;28;20219;-84
2023/01/25 10:47:03;;;;;;;9.52;7.25;;;3.90;99.90;;;;;;5114048;28;20203;-83
2023/01/25 10:49:40;;;;;;;7.03;6.32;;;3.90;99.90;;;;;;5114003;28;20207;-84
2023/01/25 10:52:17;;;;;;;8.05;7.13;;;3.90;99.90;;;;;;5113691;28;20242;-84
2023/01/25 10:54:48;;;;;;;8.15;7.35;;;3.90;99.90;;;;;;5113908;28;20214;-84
2023/01/25 10:57:19;;;;;;;7.25;6.22;;;4.00;99.90;;;;;;5113994;28;20204;-85
2023/01/25 10:59:52;;;;;;;6.82;5.88;;;4.00;99.90;;;;;;5113930;28;20223;-84
2023/01/25 11:02:38;;;;;;;8.80;7.00;;;4.00;99.90;;;;;;5113946;28;20229;-84
2023/01/25 11:05:32;;;;;;;8.55;6.70;;;4.10;99.90;;;;;;5112905;28;20203;-84
2023/01/25 11:08:25;;;;;;;7.05;6.40;;;4.10;99.90;;;;;;5113390;28;20290;-84
2023/01/25 11:10:54;;;;;;;9.98;7.32;;;4.00;99.90;;;;;;5114195;28;20200;-84
2023/01/25 11:13:25;;;;;;;9.18;7.15;;;4.10;99.90;;;;;;5113238;28;20229;-84
2023/01/25 11:16:09;;;;;;;7.63;6.82;;;4.00;99.90;;;;;;5113421;28;20208;-84
2023/01/25 11:18:50;;;;;;;7.88;7.07;;;4.10;99.90;;;;;;5113247;28;20200;-85
2023/01/25 11:21:22;;;;;;;8.05;6.80;;;4.20;99.90;;;;;;5113080;28;20230;-84
2023/01/25 11:24:16;;;;;;;7.05;6.38;;;4.20;99.90;;;;;;5113295;28;20243;-84
2023/01/25 11:26:45;;;;;;;13.18;7.88;;;4.20;99.90;;;;;;5113389;28;20208;-84
2023/01/25 11:29:17;;;;;;;7.25;6.55;;;4.20;99.90;;;;;;5113105;28;20211;-84
2023/01/25 11:31:49;;;;;;;7.90;6.88;;;4.10;99.90;;;;;;5113297;28;20199;-84
2023/01/25 11:34:20;;;;;;;8.18;7.32;;;4.10;99.90;;;;;;5112638;28;20279;-84
2023/01/25 11:37:15;;;;;;;10.75;7.95;;;4.00;99.90;;;;;;5113348;28;20214;-83
2023/01/25 11:39:57;;;;;;;9.43;8.43;;;4.00;99.90;;;;;;5113114;28;20233;-83
2023/01/25 11:42:34;;;;;;;7.82;7.10;;;4.00;99.90;;;;;;5112909;28;20259;-84
2023/01/25 11:45:20;;;;;;;9.60;8.68;;;4.00;99.90;;;;;;5113299;28;20211;-84
2023/01/25 11:48:05;;;;;;;10.57;7.40;;;4.00;99.90;;;;;;5113021;28;20216;-83
2023/01/25 11:50:40;;;;;;;11.07;9.30;;;4.00;99.90;;;;;;5112685;28;20235;-84
2023/01/25 11:53:27;;;;;;;12.10;10.07;;;4.00;99.90;;;;;;5112608;28;20223;-84
2023/01/25 11:56:03;;;;;;;10.90;9.80;;;4.00;99.90;;;;;;5113219;28;20211;-84
2023/01/25 11:59:03;;;;;;;9.23;8.07;;;3.90;99.90;;;;;;5112770;28;20211;-83
2023/01/25 12:05:21;;;;;;;13.30;9.98;;;3.90;99.90;;;;;;5072664;28;20233;-83
2023/01/25 12:08:10;;;;;;;21.60;9.35;;;3.90;99.90;;;;;;5112610;28;20203;-83
2023/01/25 12:11:23;;;;;;;9.50;8.50;;;3.90;99.90;;;;;;5113433;28;20204;-83
2023/01/25 12:17:58;;;;;;;12.88;9.48;;;3.90;99.90;;;;;;5084435;28;20252;-83
2023/01/25 12:24:32;;;;;;;9.00;8.10;;;3.80;99.90;;;;;;5112835;28;20238;-83
2023/01/25 12:38:28;;;;;;;10.88;9.70;;;3.80;99.90;;;;;;5088847;28;20265;-83
2023/01/25 12:41:15;;;;;;;;;;;;;;;;;;;;;
2023/01/25 12:50:25;;;;;;;11.57;9.70;;;3.70;99.90;;;;;;5094015;28;20250;-84
2023/01/25 12:53:36;;;;;;;12.48;10.38;;;3.70;99.90;;;;;;5086034;28;20239;-84
2023/01/25 12:56:42;;;;;;;;;;;;;;;;;;;;;
2023/01/25 13:03:16;;;;;;;13.05;9.27;;;3.70;99.90;;;;;;5092193;28;20281;-83
2023/01/25 13:06:18;;;;;;;13.43;9.05;;;3.70;99.90;;;;;;5013909;28;20211;-84
2023/01/25 13:08:57;;;;;;;13.32;9.43;;;3.80;99.90;;;;;;5093393;28;20214;-83
2023/01/25 13:11:37;;;;;;;13.32;9.45;;;3.80;99.90;;;;;;5114138;28;20283;-84
2023/01/25 13:14:31;;;;;;;10.98;9.43;;;3.80;99.90;;;;;;5115759;28;20247;-84
2023/01/25 13:17:38;;;;;;;11.93;9.10;;;3.80;99.90;;;;;;5116040;28;20218;-85
2023/01/25 13:20:40;;;;;;;13.00;9.00;;;3.80;99.90;;;;;;5115733;28;20267;-83
2023/01/25 13:23:32;;;;;;;13.27;9.63;;;3.80;99.90;;;;;;5115433;28;20232;-83
2023/01/25 13:26:33;;;;;;;8.95;8.02;;;3.70;99.90;;;;;;5115950;28;20214;-83
2023/01/25 13:29:03;;;;;;;13.57;9.60;;;3.70;99.90;;;;;;5115654;28;20229;-83
2023/01/25 13:31:52;;;;;;;10.45;9.35;;;3.70;99.90;;;;;;5115456;28;20200;-83
2023/01/25 13:34:50;;;;;;;12.05;9.55;;;3.70;99.90;;;;;;5115695;28;20223;-83
2023/01/25 13:37:24;;;;;;;14.10;10.35;;;3.70;99.90;;;;;;5113380;28;20237;-83
2023/01/25 13:39:53;;;;;;;16.50;11.25;;;3.60;99.90;;;;;;5115586;28;20204;-83
2023/01/25 13:42:24;;;;;;;9.65;8.38;;;3.70;99.90;;;;;;5114956;28;20223;-83
2023/01/25 13:44:56;;;;;;;12.20;9.63;;;3.70;99.90;;;;;;5115283;28;20231;-84
2023/01/25 13:47:27;;;;;;;10.82;9.25;;;3.70;99.90;;;;;;5115014;28;20208;-83
2023/01/25 13:50:05;;;;;;;12.68;9.68;;;3.60;99.90;;;;;;5115347;28;20208;-83
2023/01/25 13:52:34;;;;;;;10.07;9.07;;;3.60;99.90;;;;;;5114235;28;20216;-84
2023/01/25 13:55:16;;;;;;;9.73;8.77;;;3.60;99.90;;;;;;5115379;28;20211;-83
2023/01/25 13:57:50;;;;;;;12.23;10.35;;;3.60;99.90;;;;;;5114719;28;20222;-84
2023/01/25 14:00:24;;;;;;;11.02;9.82;;;3.60;99.90;;;;;;5114946;28;20212;-84
2023/01/25 14:02:56;;;;;;;11.13;9.93;;;3.60;99.90;;;;;;5114506;28;20224;-84
2023/01/25 14:05:27;;;;;;;12.15;10.65;;;3.60;99.90;;;;;;5114869;28;20208;-84
2023/01/25 14:07:58;;;;;;;9.73;8.73;;;3.50;99.90;;;;;;5114830;28;20215;-83
2023/01/25 14:10:30;;;;;;;14.07;9.68;;;3.50;99.90;;;;;;5114822;28;20210;-83
2023/01/25 14:13:05;;;;;;;14.45;9.88;;;3.50;99.90;;;;;;5114392;28;20244;-84
2023/01/25 14:15:35;;;;;;;11.38;8.93;;;3.50;99.90;;;;;;5114598;28;20199;-84
2023/01/25 14:18:16;;;;;;;13.93;9.50;;;3.50;99.90;;;;;;5114396;28;20211;-84
2023/01/25 14:20:46;;;;;;;12.43;10.13;;;3.40;99.90;;;;;;5114476;28;20291;-83
2023/01/25 14:23:23;;;;;;;11.77;9.65;;;3.40;99.90;;;;;;5113837;28;20227;-83
2023/01/25 14:25:57;;;;;;;11.45;10.15;;;3.40;99.90;;;;;;5114244;28;20199;-83